Airfield :
LOGIN :

Register | Disclaimer

   EN    FR    IT 

 










Legend :    VFR   Marginal VFR   IFR   Intensive IFR   Very Intensive IFR
Visi :
Ceiling :
>= 8 km
>= 3000ft
5 to 8 km
1000 to 3000 ft
1500m to 5 km
500 to 1000 ft
800 to 1500m
200 to 500 ft
< 800m
< 200 ft
Symbols :   Thunderstorms  Fog  Heavy snow  Heavy precipitations  Wind > 20 kt
SIGMETs :     Misc.  Thunderstorms  Icing  Turbulence  Mountain Waves  Volcanic Ashes







- Airport Elevation : 112 ft
- IATA code : KIR


EIKY - Kerry Farranfore

CURRENT METAR :
  • 261230Z 10013KT CAVOK 16/04 Q1021

EXPIRED METARs :
  • 261200Z 11013KT CAVOK 15/04 Q1021
  • 261130Z 10016KT CAVOK 14/03 Q1021
  • 261100Z 10012KT 070V130 CAVOK 14/02 Q1022
  • 261030Z 11011KT CAVOK 13/02 Q1022
  • 261000Z VRB02KT CAVOK 12/00 Q1022

TAF TAF EIKY
Valid from the 26 at 12:00 until the 26 at 21:00 UTC


261100Z 2612/2621 10013KT CAVOK
BECMG 2618/2621 10008KT
No reported NOTAMs for that airfield.



MET'MAP, your aeronautical weather chart ! - Copyright ORBIFLY December 2007 - Disclaimer

ORBIFLY MET'MAP TEAM :

Programming & Development : Alexandra Zaïnal
Concept & Development : Baudouin d'Aumeries
Co-Development & Prog : Marc-Olivier Méhu
Technical & hardware support : Manuel Goepfert

Contact : metmap@orbifly.com




SOURCES & CREDITS :

   NOAA